• Join FlightAware (Why Join?)
  • Login
  • US Flag 
03:36PM EDT


 

Airport Tracker/Info


-or-


 

Live Flight TrackerFlight Track Log ✈ DAL3784 ✈ 15-Apr-2013 ✈ KDTW - KATW

Flight Track Log - Related Links

Times and Time Zones

All times are in EDT time to prevent confusion due to time zone crossing. See the DAL3784 flight status page for this flight to view local times or setup timezone preferences in your user account.

Time Position Orientation Groundspeed Altitude Reporting Facility
EDT Latitude Longitude Course Direction KTS MPH feet Rate Location/Type
03:45PM 42.2058 -83.3556 352° North 145 167 1,100  Level Cleveland Center
03:46PM 42.1931 -83.3711 222° Southwest 165 190 2,100 2,160 Climbing FAA TRACON SMA TRACON (SMA)
03:46PM 42.1814 -83.3892 229° Southwest 181 208 2,900 2,520 Climbing FAA TRACON SMA TRACON (SMA)
03:46PM 42.1694 -83.4072 228° Southwest 189 217 3,800 1,920 Climbing FAA TRACON SMA TRACON (SMA)
03:47PM 42.1592 -83.4236 230° Southwest 210 242 4,200 1,800 Climbing FAA TRACON SMA TRACON (SMA)
03:47PM 42.1444 -83.4467 229° Southwest 227 261 5,000 2,400 Climbing FAA TRACON SMA TRACON (SMA)
03:47PM 42.1369 -83.4767 251° West 254 292 5,800 2,400 Climbing FAA TRACON SMA TRACON (SMA)
03:48PM 42.1456 -83.5056 292° West 277 319 6,600 2,760 Climbing FAA TRACON SMA TRACON (SMA)
03:48PM 42.1589 -83.5317 305° West 278 320 7,700 3,000 Climbing FAA TRACON SMA TRACON (SMA)
03:48PM 42.1758 -83.5636 306° West 271 312 8,600 2,400 Climbing FAA TRACON SMA TRACON (SMA)
03:49PM 42.1889 -83.5897 304° West 273 314 9,300 2,100 Climbing FAA TRACON SMA TRACON (SMA)
03:49PM 42.2075 -83.6117 319° Northwest 289 333 10,000 1,620 Climbing FAA TRACON SMA TRACON (SMA)
03:49PM 42.2328 -83.6219 343° North 323 372 10,400 1,320 Climbing FAA TRACON SMA TRACON (SMA)
03:50PM 42.2672 -83.6267 354° North 331 381 10,900 1,260 Climbing FAA TRACON SMA TRACON (SMA)
03:50PM 42.2967 -83.6303 355° North 342 394 11,300 1,440 Climbing FAA TRACON SMA TRACON (SMA)
03:50PM 42.3336 -83.6169 15° North 356 410 11,900 1,620 Climbing FAA TRACON SMA TRACON (SMA)
03:51PM 42.9510 -83.5201 352° North  Level FlightAware Approximate
03:51PM 42.3636 -83.6042 17° North 365 420 12,400  Level FAA TRACON SMA TRACON (SMA)
03:51PM 42.3936 -83.5911 18° North 367 422 12,900 1,620 Climbing FAA TRACON SMA TRACON (SMA)
03:51PM 42.4236 -83.5781 18° North 367 422 13,500 1,680 Climbing FAA TRACON SMA TRACON (SMA)
03:52PM 42.4594 -83.5628 17° North 370 426 14,000 1,800 Climbing FAA TRACON SMA TRACON (SMA)
03:52PM 42.4903 -83.5492 18° North 375 432 14,700 2,100 Climbing FAA TRACON SMA TRACON (SMA)
03:52PM 42.5292 -83.5333 17° North 376 433 15,400 1,800 Climbing FAA TRACON SMA TRACON (SMA)
03:53PM 42.5600 -83.5200 18° North 376 433 15,900 1,500 Climbing FAA TRACON SMA TRACON (SMA)
03:53PM 42.5908 -83.5067 18° North 376 433 16,400 1,800 Climbing FAA TRACON SMA TRACON (SMA)
03:53PM 42.6294 -83.4900 18° North 377 434 17,100 1,800 Climbing FAA TRACON SMA TRACON (SMA)
03:54PM 42.6603 -83.4769 17° North 377 434 17,600 1,260 Climbing FAA TRACON SMA TRACON (SMA)
03:54PM 42.6914 -83.4636 17° North 377 434 18,000 1,500 Climbing FAA TRACON SMA TRACON (SMA)
03:54PM 42.7300 -83.4464 18° North 378 435 18,600 1,620 Climbing FAA TRACON SMA TRACON (SMA)
03:55PM 42.7611 -83.4328 18° North 380 437 19,100 1,260 Climbing FAA TRACON SMA TRACON (SMA)
03:55PM 42.7922 -83.4192 18° North 380 437 19,500 1,500 Climbing FAA TRACON SMA TRACON (SMA)
03:55PM 42.8311 -83.4017 18° North 380 437 20,100 1,620 Climbing FAA TRACON SMA TRACON (SMA)
03:56PM 42.8619 -83.3881 18° North 380 437 20,600 1,200 Climbing FAA TRACON SMA TRACON (SMA)
03:56PM 42.8931 -83.3750 17° North 379 436 20,900 1,200 Climbing FAA TRACON SMA TRACON (SMA)
03:56PM 42.9325 -83.3678 North 366 421 21,400 1,200 Climbing FAA TRACON SMA TRACON (SMA)
03:57PM 42.9639 -83.3672 North 367 422 21,700 900 Climbing FAA TRACON SMA TRACON (SMA)
03:57PM 42.9956 -83.3667 North 368 423 22,000 660 Climbing FAA TRACON SMA TRACON (SMA)
03:58PM 43.0689 -83.3694 358° North 381 438 22,400 660 Climbing FAA TRACON SMA TRACON (SMA)
03:58PM 43.0983 -83.3825 342° North 365 420 22,700 420 Climbing FAA TRACON SMA TRACON (SMA)
03:58PM 43.0983 -83.3825 360° North 365 420 22,700  Level FAA TRACON SMA TRACON (SMA)
03:59PM 43.0983 -83.3825 360° North 365 420 22,700 1,140 Level FAA TRACON SMA TRACON (SMA)
03:59PM 43.2308 -83.4669 335° Northwest 359 413 24,000 720 Climbing Cleveland Center
04:00PM 43.3269 -83.5342 333° Northwest 359 413 24,000  Level Cleveland Center
04:01PM 43.4211 -83.5986 334° Northwest 370 426 24,000  Level Cleveland Center
04:03PM 43.5342 -83.7769 311° West 366 421 24,000  Level Minneapolis Center
04:04PM 43.5633 -83.9053 287° West 354 407 24,000  Level Minneapolis Center
04:05PM 43.5967 -84.0344 290° West 357 411 24,000  Level Minneapolis Center
04:06PM 43.6294 -84.1636 289° West 358 412 24,000  Level Minneapolis Center
04:07PM 43.6622 -84.2903 290° West 355 409 24,000  Level Minneapolis Center
04:08PM 43.6939 -84.4169 289° West 352 405 24,000  Level Minneapolis Center
04:09PM 43.7247 -84.5714 285° West 350 403 24,000  Level Minneapolis Center
04:10PM 43.7439 -84.6997 282° West 347 399 24,000  Level Minneapolis Center
04:11PM 43.7628 -84.8281 282° West 343 395 24,000  Level Minneapolis Center
04:13PM 43.7828 -84.9581 282° West 346 398 24,000  Level Minneapolis Center
04:14PM 43.8061 -85.1139 282° West 347 399 24,000  Level Minneapolis Center
04:15PM 43.8258 -85.2431 282° West 345 397 24,000  Level Minneapolis Center
04:16PM 43.8492 -85.3994 282° West 346 398 24,000  Level Minneapolis Center
04:17PM 43.8686 -85.5308 282° West 349 402 24,000  Level Minneapolis Center
04:18PM 43.8867 -85.6625 281° West 349 402 24,000  Level Minneapolis Center
04:19PM 43.9056 -85.7944 281° West 351 404 24,000  Level Minneapolis Center
04:20PM 43.9250 -85.9253 282° West 349 402 24,000  Level Minneapolis Center
04:21PM 43.9436 -86.0606 281° West 351 404 24,000 -300 Level Minneapolis Center
04:22PM 43.9617 -86.1900 281° West 351 404 23,500 -1,020 Descending Minneapolis Center
04:23PM 43.9844 -86.3475 281° West 349 402 22,000 -1,260 Descending Minneapolis Center
04:24PM 44.0011 -86.4714 281° West 333 383 21,000 -1,020 Descending Minneapolis Center
04:25PM 44.0172 -86.5972 280° West 332 382 20,000 -1,020 Descending Minneapolis Center
04:26PM 44.0347 -86.7267 281° West 340 391 19,000 -1,080 Descending Minneapolis Center
04:27PM 44.0522 -86.8569 281° West 343 395 17,900 -1,080 Descending Minneapolis Center
04:28PM 44.0694 -86.9858 281° West 337 388 16,800 -1,140 Descending Minneapolis Center
04:29PM 44.0894 -87.1333 281° West 332 382 15,600 -1,080 Descending Minneapolis Center
04:30PM 44.1047 -87.2536 280° West 324 373 14,600 -1,020 Descending Minneapolis Center
04:31PM 44.1189 -87.3700 280° West 312 359 13,600 -1,020 Descending Minneapolis Center
04:32PM 44.1336 -87.4864 280° West 307 353 12,600 -1,080 Descending Minneapolis Center
04:33PM 44.1492 -87.6033 281° West 307 353 11,400 -1,260 Descending Minneapolis Center
04:34PM 44.1653 -87.7333 280° West 298 343 10,000 -1,260 Descending Minneapolis Center
04:35PM 44.1758 -87.8203 280° West 249 287 8,900 -1,080 Descending Minneapolis Center
04:36PM 44.2025 -87.9050 294° West 246 283 7,800 -1,020 Descending Minneapolis Center
04:37PM 44.2369 -87.9906 299° West 254 292 6,800 -1,020 Descending Minneapolis Center
04:38PM 44.2678 -88.0789 296° West 256 295 5,800 -1,080 Descending Minneapolis Center
04:39PM 44.2881 -88.1747 286° West 229 264 4,600 -960 Descending Minneapolis Center
04:40PM 44.3036 -88.2492 286° West 210 242 3,900 -840 Descending Minneapolis Center
04:41PM 44.3139 -88.3192 282° West 193 222 2,900 -660 Descending Minneapolis Center
04:42PM 44.3236 -88.3911 281° West 190 219 2,600 -480 Descending Minneapolis Center
04:44PM 44.3197 -88.4550 265° West 179 206 2,000 -540 Descending Minneapolis Center
04:45PM 44.3008 -88.4936 236° Southwest 147 169 1,500 -480 Descending Minneapolis Center
04:46PM 44.2686 -88.5222 212° Southwest 131 151 1,100 -420 Descending Minneapolis Center